sensor_id;sensor_type;location;lat;lon;timestamp;pressure;altitude;pressure_sealevel;temperature;humidity
71772;BME280;59606;52.138;5.424;2023-06-24T00:00:36;102505.09;;;19.95;71.49
71772;BME280;59606;52.138;5.424;2023-06-24T00:03:04;102505.09;;;19.95;71.44
71772;BME280;59606;52.138;5.424;2023-06-24T00:05:34;102507.06;;;19.92;71.57
71772;BME280;59606;52.138;5.424;2023-06-24T00:08:01;102503.25;;;19.83;72.26
71772;BME280;59606;52.138;5.424;2023-06-24T00:10:28;102500.50;;;19.85;72.37
71772;BME280;59606;52.138;5.424;2023-06-24T00:12:55;102504.84;;;19.86;72.50
71772;BME280;59606;52.138;5.424;2023-06-24T00:15:22;102508.44;;;19.85;72.60
71772;BME280;59606;52.138;5.424;2023-06-24T00:17:48;102501.84;;;19.77;72.77
71772;BME280;59606;52.138;5.424;2023-06-24T00:20:16;102513.16;;;19.67;72.94
71772;BME280;59606;52.138;5.424;2023-06-24T00:22:44;102517.97;;;19.60;73.49
71772;BME280;59606;52.138;5.424;2023-06-24T00:25:15;102530.56;;;19.57;74.06
71772;BME280;59606;52.138;5.424;2023-06-24T00:27:41;102521.78;;;19.56;74.35
71772;BME280;59606;52.138;5.424;2023-06-24T00:30:10;102511.09;;;19.58;74.71
71772;BME280;59606;52.138;5.424;2023-06-24T00:32:36;102513.72;;;19.58;74.59
71772;BME280;59606;52.138;5.424;2023-06-24T00:35:03;102515.72;;;19.54;74.27
71772;BME280;59606;52.138;5.424;2023-06-24T00:37:30;102529.78;;;19.42;74.81
71772;BME280;59606;52.138;5.424;2023-06-24T00:39:56;102526.38;;;19.40;74.29
71772;BME280;59606;52.138;5.424;2023-06-24T00:42:23;102516.00;;;19.37;74.05
71772;BME280;59606;52.138;5.424;2023-06-24T00:44:50;102518.25;;;19.43;73.86
71772;BME280;59606;52.138;5.424;2023-06-24T00:47:17;102520.53;;;19.35;73.75
71772;BME280;59606;52.138;5.424;2023-06-24T00:49:44;102535.19;;;19.26;74.12
71772;BME280;59606;52.138;5.424;2023-06-24T00:52:12;102524.63;;;19.26;74.04
71772;BME280;59606;52.138;5.424;2023-06-24T00:54:43;102529.06;;;19.25;73.76
71772;BME280;59606;52.138;5.424;2023-06-24T00:57:10;102536.25;;;19.23;74.01
71772;BME280;59606;52.138;5.424;2023-06-24T00:59:38;102530.88;;;19.25;73.47
71772;BME280;59606;52.138;5.424;2023-06-24T01:02:04;102527.28;;;19.26;73.10
71772;BME280;59606;52.138;5.424;2023-06-24T01:04:32;102522.28;;;19.21;72.91
71772;BME280;59606;52.138;5.424;2023-06-24T01:07:00;102515.50;;;19.17;73.26
71772;BME280;59606;52.138;5.424;2023-06-24T01:09:27;102507.88;;;19.13;72.88
71772;BME280;59606;52.138;5.424;2023-06-24T01:11:54;102508.06;;;19.10;73.47
71772;BME280;59606;52.138;5.424;2023-06-24T01:14:21;102506.47;;;19.07;73.41
71772;BME280;59606;52.138;5.424;2023-06-24T01:19:33;102512.13;;;19.01;73.57
71772;BME280;59606;52.138;5.424;2023-06-24T01:22:20;102509.69;;;18.98;73.81
71772;BME280;59606;52.138;5.424;2023-06-24T01:25:09;102509.16;;;18.93;73.60
71772;BME280;59606;52.138;5.424;2023-06-24T01:31:06;102510.28;;;18.89;74.27
71772;BME280;59606;52.138;5.424;2023-06-24T01:33:42;102507.00;;;18.85;74.38
71772;BME280;59606;52.138;5.424;2023-06-24T01:36:13;102504.75;;;18.79;74.57
71772;BME280;59606;52.138;5.424;2023-06-24T01:38:48;102498.81;;;18.75;74.73
71772;BME280;59606;52.138;5.424;2023-06-24T01:41:21;102500.84;;;18.70;75.06
71772;BME280;59606;52.138;5.424;2023-06-24T01:43:52;102501.97;;;18.66;75.46
71772;BME280;59606;52.138;5.424;2023-06-24T01:46:22;102511.31;;;18.57;75.94
71772;BME280;59606;52.138;5.424;2023-06-24T01:48:49;102510.94;;;18.49;76.75
71772;BME280;59606;52.138;5.424;2023-06-24T01:51:19;102512.81;;;18.47;77.01
71772;BME280;59606;52.138;5.424;2023-06-24T01:53:55;102511.06;;;18.48;76.79
71772;BME280;59606;52.138;5.424;2023-06-24T01:56:25;102504.84;;;18.49;77.00
71772;BME280;59606;52.138;5.424;2023-06-24T01:58:54;102503.16;;;18.48;77.14
71772;BME280;59606;52.138;5.424;2023-06-24T02:01:23;102502.47;;;18.44;77.04
71772;BME280;59606;52.138;5.424;2023-06-24T02:03:51;102505.50;;;18.38;77.46
71772;BME280;59606;52.138;5.424;2023-06-24T02:06:20;102501.97;;;18.37;77.55
71772;BME280;59606;52.138;5.424;2023-06-24T02:08:49;102493.34;;;18.35;77.39
71772;BME280;59606;52.138;5.424;2023-06-24T02:11:17;102495.38;;;18.30;77.76
71772;BME280;59606;52.138;5.424;2023-06-24T02:13:44;102495.78;;;18.24;78.23
71772;BME280;59606;52.138;5.424;2023-06-24T02:16:13;102492.47;;;18.21;78.45
71772;BME280;59606;52.138;5.424;2023-06-24T02:18:40;102488.41;;;18.15;78.50
71772;BME280;59606;52.138;5.424;2023-06-24T02:21:10;102488.78;;;18.09;78.86
71772;BME280;59606;52.138;5.424;2023-06-24T02:23:38;102490.00;;;18.03;78.80
71772;BME280;59606;52.138;5.424;2023-06-24T02:26:06;102493.69;;;18.01;79.14
71772;BME280;59606;52.138;5.424;2023-06-24T02:28:34;102491.13;;;17.99;79.05
71772;BME280;59606;52.138;5.424;2023-06-24T02:31:01;102480.69;;;17.98;79.27
71772;BME280;59606;52.138;5.424;2023-06-24T02:33:28;102482.72;;;17.93;79.05
71772;BME280;59606;52.138;5.424;2023-06-24T02:35:55;102480.28;;;17.89;79.31
71772;BME280;59606;52.138;5.424;2023-06-24T02:38:21;102482.25;;;17.86;79.62
71772;BME280;59606;52.138;5.424;2023-06-24T02:40:48;102470.19;;;17.82;79.52
71772;BME280;59606;52.138;5.424;2023-06-24T02:43:16;102475.53;;;17.80;79.79
71772;BME280;59606;52.138;5.424;2023-06-24T02:45:44;102468.75;;;17.76;79.90
71772;BME280;59606;52.138;5.424;2023-06-24T02:48:12;102468.69;;;17.78;79.97
71772;BME280;59606;52.138;5.424;2023-06-24T02:50:39;102480.16;;;17.77;80.08
71772;BME280;59606;52.138;5.424;2023-06-24T02:53:10;102479.38;;;17.75;80.12
71772;BME280;59606;52.138;5.424;2023-06-24T02:55:40;102479.72;;;17.68;80.13
71772;BME280;59606;52.138;5.424;2023-06-24T02:58:07;102476.50;;;17.63;80.48
71772;BME280;59606;52.138;5.424;2023-06-24T03:00:36;102478.56;;;17.58;81.00
71772;BME280;59606;52.138;5.424;2023-06-24T03:03:04;102477.91;;;17.55;81.42
71772;BME280;59606;52.138;5.424;2023-06-24T03:05:32;102478.94;;;17.52;81.34
71772;BME280;59606;52.138;5.424;2023-06-24T03:08:00;102473.09;;;17.47;81.63
71772;BME280;59606;52.138;5.424;2023-06-24T03:10:27;102471.66;;;17.41;81.98
71772;BME280;59606;52.138;5.424;2023-06-24T03:12:53;102466.72;;;17.35;82.22
71772;BME280;59606;52.138;5.424;2023-06-24T03:15:20;102477.59;;;17.29;82.39
71772;BME280;59606;52.138;5.424;2023-06-24T03:17:47;102470.81;;;17.25;82.45
71772;BME280;59606;52.138;5.424;2023-06-24T03:20:13;102469.81;;;17.28;82.15
71772;BME280;59606;52.138;5.424;2023-06-24T03:22:40;102471.50;;;17.29;82.20
71772;BME280;59606;52.138;5.424;2023-06-24T03:25:07;102478.56;;;17.28;82.19
71772;BME280;59606;52.138;5.424;2023-06-24T03:27:33;102479.50;;;17.27;82.22
71772;BME280;59606;52.138;5.424;2023-06-24T03:30:01;102478.72;;;17.25;82.20
71772;BME280;59606;52.138;5.424;2023-06-24T03:32:27;102488.59;;;17.22;82.61
71772;BME280;59606;52.138;5.424;2023-06-24T03:34:56;102491.28;;;17.20;82.64
71772;BME280;59606;52.138;5.424;2023-06-24T03:37:23;102498.69;;;17.13;82.62
71772;BME280;59606;52.138;5.424;2023-06-24T03:39:49;102489.25;;;17.09;82.68
71772;BME280;59606;52.138;5.424;2023-06-24T03:42:16;102485.72;;;17.10;82.83
71772;BME280;59606;52.138;5.424;2023-06-24T03:44:42;102484.09;;;17.08;82.89
71772;BME280;59606;52.138;5.424;2023-06-24T03:47:09;102494.81;;;17.05;83.44
71772;BME280;59606;52.138;5.424;2023-06-24T03:49:35;102482.75;;;17.01;83.74
71772;BME280;59606;52.138;5.424;2023-06-24T03:52:02;102493.34;;;16.99;84.08
71772;BME280;59606;52.138;5.424;2023-06-24T03:54:30;102483.75;;;16.98;84.23
71772;BME280;59606;52.138;5.424;2023-06-24T03:56:56;102485.53;;;16.98;84.12
71772;BME280;59606;52.138;5.424;2023-06-24T03:59:23;102487.16;;;17.00;83.80
71772;BME280;59606;52.138;5.424;2023-06-24T04:01:49;102485.44;;;16.99;83.79
71772;BME280;59606;52.138;5.424;2023-06-24T04:04:17;102492.22;;;17.03;83.61
71772;BME280;59606;52.138;5.424;2023-06-24T04:06:44;102495.66;;;17.05;83.38
71772;BME280;59606;52.138;5.424;2023-06-24T04:09:10;102489.53;;;17.05;83.25
71772;BME280;59606;52.138;5.424;2023-06-24T04:11:37;102497.34;;;17.06;83.44
71772;BME280;59606;52.138;5.424;2023-06-24T04:14:03;102490.28;;;17.07;83.40
71772;BME280;59606;52.138;5.424;2023-06-24T04:16:33;102501.84;;;17.04;83.36
71772;BME280;59606;52.138;5.424;2023-06-24T04:18:59;102502.53;;;17.08;83.62
71772;BME280;59606;52.138;5.424;2023-06-24T04:21:26;102504.22;;;17.09;83.50
71772;BME280;59606;52.138;5.424;2023-06-24T04:23:52;102506.69;;;17.12;83.36
71772;BME280;59606;52.138;5.424;2023-06-24T04:26:19;102504.66;;;17.17;83.28
71772;BME280;59606;52.138;5.424;2023-06-24T04:28:45;102502.78;;;17.19;83.15
71772;BME280;59606;52.138;5.424;2023-06-24T04:31:12;102495.53;;;17.23;82.98
71772;BME280;59606;52.138;5.424;2023-06-24T04:33:38;102498.94;;;17.25;82.82
71772;BME280;59606;52.138;5.424;2023-06-24T04:36:05;102497.66;;;17.32;82.74
71772;BME280;59606;52.138;5.424;2023-06-24T04:38:31;102493.06;;;17.35;82.56
71772;BME280;59606;52.138;5.424;2023-06-24T04:40:58;102490.25;;;17.38;82.70
71772;BME280;59606;52.138;5.424;2023-06-24T04:43:26;102487.19;;;17.46;82.58
71772;BME280;59606;52.138;5.424;2023-06-24T04:45:54;102495.00;;;17.48;81.83
71772;BME280;59606;52.138;5.424;2023-06-24T04:48:24;102492.69;;;17.57;81.69
71772;BME280;59606;52.138;5.424;2023-06-24T04:50:50;102492.06;;;17.68;81.68
71772;BME280;59606;52.138;5.424;2023-06-24T04:53:20;102493.25;;;17.78;81.40
71772;BME280;59606;52.138;5.424;2023-06-24T04:55:46;102488.53;;;17.83;81.09
71772;BME280;59606;52.138;5.424;2023-06-24T04:58:13;102498.06;;;17.86;81.11
71772;BME280;59606;52.138;5.424;2023-06-24T05:00:39;102494.97;;;17.94;81.04
71772;BME280;59606;52.138;5.424;2023-06-24T05:03:06;102493.69;;;18.01;80.93
71772;BME280;59606;52.138;5.424;2023-06-24T05:05:33;102503.09;;;18.05;80.51
71772;BME280;59606;52.138;5.424;2023-06-24T05:08:01;102510.06;;;18.06;79.70
71772;BME280;59606;52.138;5.424;2023-06-24T05:10:28;102515.16;;;18.09;79.76
71772;BME280;59606;52.138;5.424;2023-06-24T05:12:54;102511.22;;;18.16;79.62
71772;BME280;59606;52.138;5.424;2023-06-24T05:15:21;102511.88;;;18.20;78.88
71772;BME280;59606;52.138;5.424;2023-06-24T05:17:48;102513.66;;;18.19;78.81
71772;BME280;59606;52.138;5.424;2023-06-24T05:20:18;102507.72;;;18.16;78.58
71772;BME280;59606;52.138;5.424;2023-06-24T05:22:44;102518.00;;;18.20;78.92
71772;BME280;59606;52.138;5.424;2023-06-24T05:25:11;102514.91;;;18.28;79.28
71772;BME280;59606;52.138;5.424;2023-06-24T05:27:37;102517.94;;;18.36;78.06
71772;BME280;59606;52.138;5.424;2023-06-24T05:30:04;102515.66;;;18.44;77.87
71772;BME280;59606;52.138;5.424;2023-06-24T05:32:31;102512.44;;;18.53;77.17
71772;BME280;59606;52.138;5.424;2023-06-24T05:34:57;102504.81;;;18.63;76.53
71772;BME280;59606;52.138;5.424;2023-06-24T05:37:24;102505.00;;;18.74;75.78
71772;BME280;59606;52.138;5.424;2023-06-24T05:39:50;102513.50;;;18.79;75.47
71772;BME280;59606;52.138;5.424;2023-06-24T05:42:17;102513.22;;;18.84;74.96
71772;BME280;59606;52.138;5.424;2023-06-24T05:44:44;102526.13;;;18.89;75.31
71772;BME280;59606;52.138;5.424;2023-06-24T05:47:10;102522.06;;;18.97;73.92
71772;BME280;59606;52.138;5.424;2023-06-24T05:49:37;102525.06;;;19.05;76.66
71772;BME280;59606;52.138;5.424;2023-06-24T05:52:04;102519.84;;;19.18;75.72
71772;BME280;59606;52.138;5.424;2023-06-24T05:54:31;102525.66;;;19.23;73.32
71772;BME280;59606;52.138;5.424;2023-06-24T05:56:57;102518.50;;;19.25;73.69
71772;BME280;59606;52.138;5.424;2023-06-24T05:59:24;102522.69;;;19.42;74.75
71772;BME280;59606;52.138;5.424;2023-06-24T06:01:50;102527.34;;;19.51;72.64
71772;BME280;59606;52.138;5.424;2023-06-24T06:04:17;102519.22;;;19.54;72.25
71772;BME280;59606;52.138;5.424;2023-06-24T06:06:44;102519.09;;;19.70;71.74
71772;BME280;59606;52.138;5.424;2023-06-24T06:09:10;102516.81;;;19.78;71.18
71772;BME280;59606;52.138;5.424;2023-06-24T06:11:37;102514.16;;;19.91;71.48
71772;BME280;59606;52.138;5.424;2023-06-24T06:14:03;102516.09;;;20.02;70.04
71772;BME280;59606;52.138;5.424;2023-06-24T06:16:30;102506.03;;;20.20;70.00
71772;BME280;59606;52.138;5.424;2023-06-24T06:18:56;102509.63;;;20.44;69.38
71772;BME280;59606;52.138;5.424;2023-06-24T06:21:24;102509.19;;;20.76;70.48
71772;BME280;59606;52.138;5.424;2023-06-24T06:23:50;102506.22;;;21.05;66.89
71772;BME280;59606;52.138;5.424;2023-06-24T06:26:17;102515.94;;;21.17;66.06
71772;BME280;59606;52.138;5.424;2023-06-24T06:28:43;102517.84;;;21.15;65.96
71772;BME280;59606;52.138;5.424;2023-06-24T06:31:10;102510.34;;;21.09;66.04
71772;BME280;59606;52.138;5.424;2023-06-24T06:33:36;102514.72;;;20.97;66.78
71772;BME280;59606;52.138;5.424;2023-06-24T06:36:03;102517.94;;;20.89;68.36
71772;BME280;59606;52.138;5.424;2023-06-24T06:38:30;102511.16;;;20.85;68.17
71772;BME280;59606;52.138;5.424;2023-06-24T06:40:56;102515.09;;;20.80;68.32
71772;BME280;59606;52.138;5.424;2023-06-24T06:43:23;102512.69;;;20.77;67.83
71772;BME280;59606;52.138;5.424;2023-06-24T06:45:49;102516.44;;;20.85;68.45
71772;BME280;59606;52.138;5.424;2023-06-24T06:48:16;102519.63;;;20.90;70.03
71772;BME280;59606;52.138;5.424;2023-06-24T06:50:44;102517.72;;;20.92;68.78
71772;BME280;59606;52.138;5.424;2023-06-24T06:53:11;102518.00;;;21.01;68.25
71772;BME280;59606;52.138;5.424;2023-06-24T06:55:37;102517.44;;;21.08;67.26
71772;BME280;59606;52.138;5.424;2023-06-24T06:58:05;102517.13;;;21.13;65.88
71772;BME280;59606;52.138;5.424;2023-06-24T07:00:32;102509.72;;;21.05;65.77
71772;BME280;59606;52.138;5.424;2023-06-24T07:02:58;102519.22;;;21.21;67.02
71772;BME280;59606;52.138;5.424;2023-06-24T07:05:25;102509.00;;;21.27;66.52
71772;BME280;59606;52.138;5.424;2023-06-24T07:07:51;102512.34;;;21.42;65.30
71772;BME280;59606;52.138;5.424;2023-06-24T07:10:20;102520.44;;;21.40;65.73
71772;BME280;59606;52.138;5.424;2023-06-24T07:12:46;102519.09;;;21.46;65.05
71772;BME280;59606;52.138;5.424;2023-06-24T07:15:13;102516.44;;;21.46;63.71
71772;BME280;59606;52.138;5.424;2023-06-24T07:17:40;102519.22;;;21.45;63.61
71772;BME280;59606;52.138;5.424;2023-06-24T07:20:07;102510.81;;;21.51;64.54
71772;BME280;59606;52.138;5.424;2023-06-24T07:22:33;102520.91;;;21.70;64.23
71772;BME280;59606;52.138;5.424;2023-06-24T07:25:00;102517.31;;;21.82;63.58
71772;BME280;59606;52.138;5.424;2023-06-24T07:27:27;102521.34;;;21.99;63.51
71772;BME280;59606;52.138;5.424;2023-06-24T07:29:53;102522.41;;;21.96;61.53
71772;BME280;59606;52.138;5.424;2023-06-24T07:32:20;102524.13;;;21.97;61.49
71772;BME280;59606;52.138;5.424;2023-06-24T07:34:46;102520.72;;;22.06;61.65
71772;BME280;59606;52.138;5.424;2023-06-24T07:37:13;102515.94;;;22.11;60.17
71772;BME280;59606;52.138;5.424;2023-06-24T07:39:49;102518.28;;;22.27;61.31
71772;BME280;59606;52.138;5.424;2023-06-24T07:42:16;102524.78;;;22.46;63.56
71772;BME280;59606;52.138;5.424;2023-06-24T07:44:46;102520.94;;;22.50;61.57
71772;BME280;59606;52.138;5.424;2023-06-24T07:47:13;102518.16;;;22.63;61.55
71772;BME280;59606;52.138;5.424;2023-06-24T07:49:40;102516.59;;;22.71;62.34
71772;BME280;59606;52.138;5.424;2023-06-24T07:52:06;102512.22;;;22.93;60.55
71772;BME280;59606;52.138;5.424;2023-06-24T07:54:34;102509.81;;;23.01;59.28
71772;BME280;59606;52.138;5.424;2023-06-24T07:57:01;102508.09;;;22.89;59.52
71772;BME280;59606;52.138;5.424;2023-06-24T07:59:27;102509.31;;;22.96;59.61
71772;BME280;59606;52.138;5.424;2023-06-24T08:01:54;102511.34;;;23.03;58.36
71772;BME280;59606;52.138;5.424;2023-06-24T08:04:21;102519.41;;;23.13;57.79
71772;BME280;59606;52.138;5.424;2023-06-24T08:06:47;102517.59;;;23.25;57.09
71772;BME280;59606;52.138;5.424;2023-06-24T08:09:16;102513.31;;;23.34;56.46
71772;BME280;59606;52.138;5.424;2023-06-24T08:11:43;102510.78;;;23.32;56.49
71772;BME280;59606;52.138;5.424;2023-06-24T08:14:09;102510.53;;;23.35;56.86
71772;BME280;59606;52.138;5.424;2023-06-24T08:16:36;102506.53;;;23.41;56.25
71772;BME280;59606;52.138;5.424;2023-06-24T08:19:02;102501.88;;;23.54;54.98
71772;BME280;59606;52.138;5.424;2023-06-24T08:21:29;102505.97;;;23.58;56.00
71772;BME280;59606;52.138;5.424;2023-06-24T08:23:56;102500.13;;;23.64;55.79
71772;BME280;59606;52.138;5.424;2023-06-24T08:26:22;102497.00;;;23.59;55.62
71772;BME280;59606;52.138;5.424;2023-06-24T08:28:49;102500.75;;;23.68;55.81
71772;BME280;59606;52.138;5.424;2023-06-24T08:31:15;102496.34;;;23.78;56.28
71772;BME280;59606;52.138;5.424;2023-06-24T08:33:45;102495.00;;;23.93;55.15
71772;BME280;59606;52.138;5.424;2023-06-24T08:36:12;102496.47;;;24.07;57.04
71772;BME280;59606;52.138;5.424;2023-06-24T08:38:39;102498.34;;;24.16;56.75
71772;BME280;59606;52.138;5.424;2023-06-24T08:41:05;102498.69;;;24.23;54.29
71772;BME280;59606;52.138;5.424;2023-06-24T08:43:32;102505.88;;;24.32;54.49
71772;BME280;59606;52.138;5.424;2023-06-24T08:45:59;102498.88;;;24.31;54.46
71772;BME280;59606;52.138;5.424;2023-06-24T08:48:26;102500.94;;;24.28;55.36
71772;BME280;59606;52.138;5.424;2023-06-24T08:50:58;102502.09;;;24.35;54.42
71772;BME280;59606;52.138;5.424;2023-06-24T08:53:26;102499.09;;;24.49;54.61
71772;BME280;59606;52.138;5.424;2023-06-24T08:55:54;102493.94;;;24.57;54.01
71772;BME280;59606;52.138;5.424;2023-06-24T08:58:22;102484.25;;;24.56;52.63
71772;BME280;59606;52.138;5.424;2023-06-24T09:00:49;102493.50;;;24.52;52.61
71772;BME280;59606;52.138;5.424;2023-06-24T09:03:16;102491.66;;;24.43;53.16
71772;BME280;59606;52.138;5.424;2023-06-24T09:05:42;102491.38;;;24.46;53.89
71772;BME280;59606;52.138;5.424;2023-06-24T09:08:10;102495.06;;;24.55;52.89
71772;BME280;59606;52.138;5.424;2023-06-24T09:10:37;102496.75;;;24.56;53.40
71772;BME280;59606;52.138;5.424;2023-06-24T09:13:06;102486.91;;;24.56;54.04
71772;BME280;59606;52.138;5.424;2023-06-24T09:15:37;102496.34;;;24.70;54.03
71772;BME280;59606;52.138;5.424;2023-06-24T09:18:04;102484.19;;;24.87;52.78
71772;BME280;59606;52.138;5.424;2023-06-24T09:20:32;102492.19;;;24.87;52.85
71772;BME280;59606;52.138;5.424;2023-06-24T09:23:03;102486.56;;;24.90;51.58
71772;BME280;59606;52.138;5.424;2023-06-24T09:25:30;102480.69;;;24.96;52.37
71772;BME280;59606;52.138;5.424;2023-06-24T09:28:03;102487.00;;;25.05;52.31
71772;BME280;59606;52.138;5.424;2023-06-24T09:30:29;102490.44;;;25.16;51.74
71772;BME280;59606;52.138;5.424;2023-06-24T09:32:56;102480.19;;;25.12;55.07
71772;BME280;59606;52.138;5.424;2023-06-24T09:35:26;102478.09;;;25.25;52.70
71772;BME280;59606;52.138;5.424;2023-06-24T09:37:54;102481.44;;;25.37;53.41
71772;BME280;59606;52.138;5.424;2023-06-24T09:40:21;102475.94;;;25.48;51.85
71772;BME280;59606;52.138;5.424;2023-06-24T09:42:53;102474.09;;;25.58;52.08
71772;BME280;59606;52.138;5.424;2023-06-24T09:45:22;102475.09;;;25.67;51.59
71772;BME280;59606;52.138;5.424;2023-06-24T09:47:49;102486.88;;;25.74;49.48
71772;BME280;59606;52.138;5.424;2023-06-24T09:50:16;102476.19;;;25.74;50.66
71772;BME280;59606;52.138;5.424;2023-06-24T09:52:44;102470.56;;;25.77;49.91
71772;BME280;59606;52.138;5.424;2023-06-24T09:55:14;102463.41;;;25.78;49.43
71772;BME280;59606;52.138;5.424;2023-06-24T09:57:44;102461.84;;;25.85;50.10
71772;BME280;59606;52.138;5.424;2023-06-24T10:00:14;102460.59;;;25.89;50.21
71772;BME280;59606;52.138;5.424;2023-06-24T10:02:45;102460.72;;;25.97;50.16
71772;BME280;59606;52.138;5.424;2023-06-24T10:05:13;102463.78;;;26.02;51.59
71772;BME280;59606;52.138;5.424;2023-06-24T10:07:41;102461.13;;;26.02;51.48
71772;BME280;59606;52.138;5.424;2023-06-24T10:10:08;102464.06;;;26.09;50.21
71772;BME280;59606;52.138;5.424;2023-06-24T10:12:37;102461.31;;;26.19;49.20
71772;BME280;59606;52.138;5.424;2023-06-24T10:15:05;102459.91;;;26.24;52.42
71772;BME280;59606;52.138;5.424;2023-06-24T10:17:32;102459.41;;;26.39;50.63
71772;BME280;59606;52.138;5.424;2023-06-24T10:20:03;102463.31;;;26.44;48.51
71772;BME280;59606;52.138;5.424;2023-06-24T10:22:30;102452.72;;;26.52;48.44
71772;BME280;59606;52.138;5.424;2023-06-24T10:25:02;102453.31;;;26.56;50.38
71772;BME280;59606;52.138;5.424;2023-06-24T10:27:38;102456.44;;;26.69;49.37
71772;BME280;59606;52.138;5.424;2023-06-24T10:30:06;102451.50;;;26.74;46.71
71772;BME280;59606;52.138;5.424;2023-06-24T10:32:41;102452.03;;;26.78;47.43
71772;BME280;59606;52.138;5.424;2023-06-24T10:35:27;102444.63;;;26.90;49.71
71772;BME280;59606;52.138;5.424;2023-06-24T10:37:58;102444.53;;;26.99;47.07
71772;BME280;59606;52.138;5.424;2023-06-24T10:40:34;102449.50;;;27.12;48.49
71772;BME280;59606;52.138;5.424;2023-06-24T10:43:01;102442.13;;;27.24;48.24
71772;BME280;59606;52.138;5.424;2023-06-24T10:45:27;102431.72;;;27.21;45.45
71772;BME280;59606;52.138;5.424;2023-06-24T10:47:54;102431.19;;;27.17;45.42
71772;BME280;59606;52.138;5.424;2023-06-24T10:50:26;102435.94;;;27.23;44.75
71772;BME280;59606;52.138;5.424;2023-06-24T10:52:53;102429.50;;;27.34;45.42
71772;BME280;59606;52.138;5.424;2023-06-24T10:55:23;102432.81;;;27.54;45.86
71772;BME280;59606;52.138;5.424;2023-06-24T10:57:51;102426.97;;;27.59;44.95
71772;BME280;59606;52.138;5.424;2023-06-24T11:00:20;102432.66;;;27.82;45.27
71772;BME280;59606;52.138;5.424;2023-06-24T11:02:48;102418.97;;;27.85;42.95
71772;BME280;59606;52.138;5.424;2023-06-24T11:05:14;102416.22;;;27.77;43.51
71772;BME280;59606;52.138;5.424;2023-06-24T11:07:41;102417.50;;;27.90;44.78
71772;BME280;59606;52.138;5.424;2023-06-24T11:10:11;102417.53;;;28.07;46.42
71772;BME280;59606;52.138;5.424;2023-06-24T11:12:40;102411.66;;;27.95;44.43
71772;BME280;59606;52.138;5.424;2023-06-24T11:15:09;102417.09;;;27.77;44.83
71772;BME280;59606;52.138;5.424;2023-06-24T11:17:37;102421.47;;;27.60;45.51
71772;BME280;59606;52.138;5.424;2023-06-24T11:20:08;102415.69;;;27.47;45.51
71772;BME280;59606;52.138;5.424;2023-06-24T11:22:36;102417.84;;;27.43;47.17
71772;BME280;59606;52.138;5.424;2023-06-24T11:25:03;102419.84;;;27.41;45.72
71772;BME280;59606;52.138;5.424;2023-06-24T11:27:30;102420.22;;;27.29;45.29
71772;BME280;59606;52.138;5.424;2023-06-24T11:29:59;102420.41;;;27.27;46.41
71772;BME280;59606;52.138;5.424;2023-06-24T11:32:36;102416.88;;;27.26;46.50
71772;BME280;59606;52.138;5.424;2023-06-24T11:35:07;102407.84;;;27.27;46.37
71772;BME280;59606;52.138;5.424;2023-06-24T11:37:34;102405.34;;;27.52;48.62
71772;BME280;59606;52.138;5.424;2023-06-24T11:40:06;102405.50;;;27.77;45.93
71772;BME280;59606;52.138;5.424;2023-06-24T11:42:38;102399.94;;;27.70;46.81
71772;BME280;59606;52.138;5.424;2023-06-24T11:45:07;102404.09;;;27.64;46.05
71772;BME280;59606;52.138;5.424;2023-06-24T11:47:39;102401.31;;;27.48;46.73
71772;BME280;59606;52.138;5.424;2023-06-24T11:50:06;102398.03;;;27.36;47.62
71772;BME280;59606;52.138;5.424;2023-06-24T11:52:43;102399.56;;;27.39;47.26
71772;BME280;59606;52.138;5.424;2023-06-24T11:55:12;102396.53;;;27.34;46.81
71772;BME280;59606;52.138;5.424;2023-06-24T11:57:59;102401.75;;;27.17;46.55
71772;BME280;59606;52.138;5.424;2023-06-24T12:00:32;102406.41;;;27.15;47.27
71772;BME280;59606;52.138;5.424;2023-06-24T12:03:05;102405.63;;;27.05;48.93
71772;BME280;59606;52.138;5.424;2023-06-24T12:05:38;102408.25;;;26.97;48.45
71772;BME280;59606;52.138;5.424;2023-06-24T12:08:11;102404.66;;;26.88;49.78
71772;BME280;59606;52.138;5.424;2023-06-24T12:10:40;102404.94;;;26.85;48.96
71772;BME280;59606;52.138;5.424;2023-06-24T12:13:06;102402.13;;;26.87;49.85
71772;BME280;59606;52.138;5.424;2023-06-24T12:15:35;102397.03;;;26.93;50.08
71772;BME280;59606;52.138;5.424;2023-06-24T12:18:02;102396.53;;;26.98;49.93
71772;BME280;59606;52.138;5.424;2023-06-24T12:20:29;102400.59;;;27.02;49.70
71772;BME280;59606;52.138;5.424;2023-06-24T12:23:02;102391.94;;;27.08;47.82
71772;BME280;59606;52.138;5.424;2023-06-24T12:25:30;102387.03;;;27.13;48.55
71772;BME280;59606;52.138;5.424;2023-06-24T12:27:56;102388.91;;;27.21;49.89
71772;BME280;59606;52.138;5.424;2023-06-24T12:30:24;102386.28;;;27.29;49.18
71772;BME280;59606;52.138;5.424;2023-06-24T12:32:51;102386.97;;;27.31;49.48
71772;BME280;59606;52.138;5.424;2023-06-24T12:35:18;102379.28;;;27.36;49.30
71772;BME280;59606;52.138;5.424;2023-06-24T12:37:45;102381.66;;;27.39;49.29
71772;BME280;59606;52.138;5.424;2023-06-24T12:40:12;102380.41;;;27.52;48.77
71772;BME280;59606;52.138;5.424;2023-06-24T12:42:38;102379.41;;;27.53;49.11
71772;BME280;59606;52.138;5.424;2023-06-24T12:45:05;102370.75;;;27.59;48.42
71772;BME280;59606;52.138;5.424;2023-06-24T12:47:32;102374.75;;;27.55;46.08
71772;BME280;59606;52.138;5.424;2023-06-24T12:49:59;102370.22;;;27.55;47.68
71772;BME280;59606;52.138;5.424;2023-06-24T12:52:26;102373.94;;;27.62;48.74
71772;BME280;59606;52.138;5.424;2023-06-24T12:54:52;102368.44;;;27.64;49.13
71772;BME280;59606;52.138;5.424;2023-06-24T12:57:19;102361.38;;;27.63;45.79
71772;BME280;59606;52.138;5.424;2023-06-24T12:59:46;102364.06;;;27.63;46.64